Time;durP1;ratioP1;P1;durP2;ratioP2;P2;SDS_P1;SDS_P2;PMS_P1;PMS_P2;Temp;Humidity;BMP_temperature;BMP_pressure;BME280_temperature;BME280_humidity;BME280_pressure;Samples;Min_cycle;Max_cycle;Signal;HPM_P1;HPM_P2
2023/12/08 00:01:12;;;;;;;;;;;;;;;16.58;44.19;100915.03;4977572;28;1080;-53
2023/12/08 00:03:38;;;;;;;;;;;;;;;16.00;45.72;100908.31;4974246;28;1143;-52
2023/12/08 00:06:04;;;;;;;;;;;;;;;16.50;45.06;100905.78;4962450;28;1092;-56
2023/12/08 00:08:29;;;;;;;;;;;;;;;16.99;43.47;100919.19;4967842;28;1176;-52
2023/12/08 00:10:55;;;;;;;;;;;;;;;16.21;45.05;100918.44;4962271;28;1312;-53
2023/12/08 00:13:20;;;;;;;;;;;;;;;15.91;45.98;100918.56;4977963;28;1270;-50
2023/12/08 00:15:47;;;;;;;;;;;;;;;16.76;44.17;100918.19;4973143;28;1902;-52
2023/12/08 00:18:13;;;;;;;;;;;;;;;16.95;43.42;100909.72;4968567;28;1124;-53
2023/12/08 00:20:38;;;;;;;;;;;;;;;16.22;45.12;100909.50;4978076;28;1104;-54
2023/12/08 00:23:04;;;;;;;;;;;;;;;15.89;46.12;100912.53;4967880;28;1164;-54
2023/12/08 00:25:29;;;;;;;;;;;;;;;15.69;46.55;100916.50;4975100;28;1199;-54
2023/12/08 00:27:55;;;;;;;;;;;;;;;16.93;43.70;100911.66;4972906;28;1092;-53
2023/12/08 00:30:21;;;;;;;;;;;;;;;16.73;43.82;100899.81;4971433;28;1157;-54
2023/12/08 00:32:46;;;;;;;;;;;;;;;16.07;45.67;100900.78;4968408;28;1097;-55
2023/12/08 00:35:12;;;;;;;;;;;;;;;16.77;43.88;100904.78;4961411;28;1910;-54
2023/12/08 00:37:38;;;;;;;;;;;;;;;16.85;43.67;100898.06;4959332;28;1145;-54
2023/12/08 00:40:05;;;;;;;;;;;;;;;16.14;45.48;100905.59;4962892;28;1120;-54
2023/12/08 00:42:31;;;;;;;;;;;;;;;16.35;45.23;100898.91;4977485;28;1085;-54
2023/12/08 00:44:56;;;;;;;;;;;;;;;16.98;43.57;100903.34;4977700;28;1111;-52
2023/12/08 00:47:22;;;;;;;;;;;;;;;16.25;45.15;100894.22;4977420;28;1148;-52
2023/12/08 00:49:47;;;;;;;;;;;;;;;15.91;45.71;100892.03;4964881;28;1192;-53
2023/12/08 00:52:13;;;;;;;;;;;;;;;15.63;46.32;100885.09;4967022;28;1160;-54
2023/12/08 00:54:39;;;;;;;;;;;;;;;16.67;44.44;100879.81;4961430;28;1163;-55
2023/12/08 00:57:04;;;;;;;;;;;;;;;17.08;43.28;100874.28;4977271;28;1906;-53
2023/12/08 00:59:30;;;;;;;;;;;;;;;16.26;44.95;100881.78;4964082;28;1080;-52
2023/12/08 01:01:56;;;;;;;;;;;;;;;15.88;46.07;100873.66;4976869;28;1036;-54
2023/12/08 01:04:21;;;;;;;;;;;;;;;16.72;44.40;100888.31;4960792;28;1184;-56
2023/12/08 01:06:47;;;;;;;;;;;;;;;16.88;43.49;100879.25;4967804;28;1085;-55
2023/12/08 01:09:12;;;;;;;;;;;;;;;16.13;45.13;100882.63;4947428;28;1116;-55
2023/12/08 01:11:38;;;;;;;;;;;;;;;15.82;45.71;100886.50;4967898;28;1152;-53
2023/12/08 01:14:04;;;;;;;;;;;;;;;16.51;44.72;100890.69;4964379;28;1163;-51
2023/12/08 01:16:29;;;;;;;;;;;;;;;17.20;42.70;100878.72;4970814;28;1977;-52
2023/12/08 01:18:55;;;;;;;;;;;;;;;16.43;44.42;100885.94;4974412;28;1296;-54
2023/12/08 01:21:21;;;;;;;;;;;;;;;15.94;45.61;100874.22;4977235;28;1037;-52
2023/12/08 01:23:46;;;;;;;;;;;;;;;15.71;46.00;100877.50;4976703;28;1048;-55
2023/12/08 01:26:12;;;;;;;;;;;;;;;16.79;44.02;100880.75;4967173;28;1157;-49
2023/12/08 01:28:37;;;;;;;;;;;;;;;16.62;44.10;100872.19;4959950;28;1231;-55
2023/12/08 01:31:03;;;;;;;;;;;;;;;16.51;45.27;100891.56;4968271;28;1184;-52
2023/12/08 01:33:29;;;;;;;;;;;;;;;15.78;45.78;100873.44;4976638;28;1196;-52
2023/12/08 01:35:55;;;;;;;;;;;;;;;16.85;44.22;100876.81;4976813;28;1898;-52
2023/12/08 01:38:20;;;;;;;;;;;;;;;16.66;43.99;100872.81;4972953;28;1176;-52
2023/12/08 01:40:46;;;;;;;;;;;;;;;16.05;45.60;100868.22;4963728;28;1193;-53
2023/12/08 01:43:12;;;;;;;;;;;;;;;15.79;46.06;100853.09;4974414;28;1072;-53
2023/12/08 01:45:37;;;;;;;;;;;;;;;16.74;43.99;100866.94;4966729;28;1109;-51
2023/12/08 01:48:04;;;;;;;;;;;;;;;16.88;43.48;100861.47;4964091;28;1255;-51
2023/12/08 01:50:30;;;;;;;;;;;;;;;16.14;44.95;100859.59;4976801;28;1076;-52
2023/12/08 01:52:56;;;;;;;;;;;;;;;15.77;45.86;100861.16;4971816;28;1085;-52
2023/12/08 01:55:21;;;;;;;;;;;;;;;16.58;44.33;100865.38;4968068;28;1910;-53
2023/12/08 01:57:47;;;;;;;;;;;;;;;17.01;43.32;100860.59;4959131;28;1054;-54
2023/12/08 02:00:13;;;;;;;;;;;;;;;16.27;44.93;100862.25;4976911;28;1155;-49
2023/12/08 02:02:38;;;;;;;;;;;;;;;15.92;45.78;100866.34;4976345;28;1100;-53
2023/12/08 02:05:04;;;;;;;;;;;;;;;15.97;45.76;100869.53;4968743;28;1119;-53
2023/12/08 02:07:31;;;;;;;;;;;;;;;17.22;42.94;100878.59;4972807;28;1152;-53
2023/12/08 02:09:57;;;;;;;;;;;;;;;16.48;44.54;100878.47;4976508;28;1435;-55
2023/12/08 02:12:22;;;;;;;;;;;;;;;15.95;45.43;100876.75;4974174;28;1109;-54
2023/12/08 02:14:50;;;;;;;;;;;;;;;15.83;45.71;100873.13;4956542;28;1263;-55
2023/12/08 02:17:20;;;;;;;;;;;;;;;17.11;43.14;100885.59;4965705;28;1990;-54
2023/12/08 02:19:46;;;;;;;;;;;;;;;16.46;44.34;100880.41;4977321;28;1052;-56
2023/12/08 02:22:11;;;;;;;;;;;;;;;15.94;45.74;100883.03;4975310;28;1045;-54
2023/12/08 02:24:37;;;;;;;;;;;;;;;16.49;44.20;100890.81;4970831;28;1045;-54
2023/12/08 02:27:02;;;;;;;;;;;;;;;16.94;43.22;100888.56;4980291;28;1037;-54
2023/12/08 02:29:29;;;;;;;;;;;;;;;16.15;44.85;100888.69;4979180;28;836;-54
2023/12/08 02:32:06;;;;;;;;;;;;;;;15.81;45.79;100885.66;4964082;28;1189;-52
2023/12/08 02:34:31;;;;;;;;;;;;;;;16.34;45.19;100900.69;4972155;28;1065;-56
2023/12/08 02:36:57;;;;;;;;;;;;;;;16.97;43.28;100906.94;4962730;28;1915;-49
2023/12/08 02:39:23;;;;;;;;;;;;;;;16.20;44.90;100906.94;4970363;28;1248;-53
2023/12/08 02:41:49;;;;;;;;;;;;;;;15.78;46.07;100897.31;4966098;28;1425;-52
2023/12/08 02:44:14;;;;;;;;;;;;;;;17.03;43.20;100909.19;4971654;28;1145;-53
2023/12/08 02:46:40;;;;;;;;;;;;;;;16.42;44.34;100913.44;4962958;28;1220;-53
2023/12/08 02:49:05;;;;;;;;;;;;;;;15.90;45.72;100924.84;4960995;28;1073;-53
2023/12/08 02:51:31;;;;;;;;;;;;;;;15.82;45.77;100926.28;4960167;28;1073;-54
2023/12/08 02:53:56;;;;;;;;;;;;;;;16.94;43.35;100931.94;4961654;28;905;-53
2023/12/08 02:56:22;;;;;;;;;;;;;;;16.20;44.75;100930.00;4964437;28;1894;-56
2023/12/08 02:58:48;;;;;;;;;;;;;;;16.13;45.24;100934.88;4979615;28;1048;-53
2023/12/08 03:01:14;;;;;;;;;;;;;;;17.32;42.53;100950.56;4963513;28;1247;-53
2023/12/08 03:03:40;;;;;;;;;;;;;;;16.56;43.80;100952.31;4960655;28;1057;-54
2023/12/08 03:06:06;;;;;;;;;;;;;;;16.02;45.36;100956.81;4968168;28;1072;-55
2023/12/08 03:08:31;;;;;;;;;;;;;;;16.58;44.30;100952.19;4968808;28;1064;-52
2023/12/08 03:10:57;;;;;;;;;;;;;;;16.72;43.44;100957.38;4973111;28;1137;-55
2023/12/08 03:13:22;;;;;;;;;;;;;;;16.05;45.38;100959.25;4959882;28;1076;-55
2023/12/08 03:15:48;;;;;;;;;;;;;;;16.02;45.16;100965.66;4971746;28;1969;-53
2023/12/08 03:18:14;;;;;;;;;;;;;;;17.27;42.70;100966.84;4962107;28;869;-55
2023/12/08 03:20:39;;;;;;;;;;;;;;;16.60;43.84;100974.19;4964120;28;1141;-55
2023/12/08 03:23:05;;;;;;;;;;;;;;;16.05;44.87;100975.19;4968201;28;1164;-54
2023/12/08 03:25:30;;;;;;;;;;;;;;;15.79;45.89;100975.97;4972476;28;1018;-49
2023/12/08 03:27:56;;;;;;;;;;;;;;;17.06;42.97;100974.53;4970471;28;1132;-53
2023/12/08 03:30:21;;;;;;;;;;;;;;;16.54;43.93;100970.16;4974307;28;1040;-52
2023/12/08 03:32:47;;;;;;;;;;;;;;;16.27;44.86;100968.44;4977914;28;1159;-53
2023/12/08 03:35:13;;;;;;;;;;;;;;;17.17;42.62;100974.66;4978420;28;1902;-50
2023/12/08 03:37:38;;;;;;;;;;;;;;;16.40;44.21;100979.91;4969353;28;1069;-49
2023/12/08 03:40:04;;;;;;;;;;;;;;;15.94;45.18;100975.03;4962630;28;1090;-54
2023/12/08 03:42:35;;;;;;;;;;;;;;;16.10;44.89;100980.22;4965454;28;863;-52
2023/12/08 03:45:00;;;;;;;;;;;;;;;17.18;42.46;100978.16;4976316;28;1065;-54
2023/12/08 03:47:26;;;;;;;;;;;;;;;16.41;44.22;100970.16;4979008;28;1119;-51
2023/12/08 03:49:51;;;;;;;;;;;;;;;15.87;45.58;100971.94;4962127;28;1156;-53
2023/12/08 03:52:17;;;;;;;;;;;;;;;16.14;44.95;100971.94;4970083;28;1156;-55
2023/12/08 03:54:43;;;;;;;;;;;;;;;17.20;42.53;100970.94;4965100;28;1121;-56
2023/12/08 03:57:08;;;;;;;;;;;;;;;16.30;44.54;100967.38;4978429;28;1910;-53
2023/12/08 03:59:34;;;;;;;;;;;;;;;15.92;45.44;100961.88;4962032;28;1164;-53
2023/12/08 04:01:59;;;;;;;;;;;;;;;15.76;45.57;100957.59;4959374;28;1148;-53
2023/12/08 04:04:25;;;;;;;;;;;;;;;17.05;43.15;100968.38;4971269;28;1128;-53
2023/12/08 04:06:50;;;;;;;;;;;;;;;16.41;43.91;100962.19;4973770;28;909;-50
2023/12/08 04:09:16;;;;;;;;;;;;;;;15.95;45.35;100972.28;4961599;28;1132;-53
2023/12/08 04:11:41;;;;;;;;;;;;;;;17.07;42.77;100973.56;4959267;29;1114;-51
2023/12/08 04:14:07;;;;;;;;;;;;;;;16.37;44.39;100973.97;4958799;28;1074;-54
2023/12/08 04:16:32;;;;;;;;;;;;;;;15.94;45.34;100978.53;4969457;28;1910;-50
2023/12/08 04:18:58;;;;;;;;;;;;;;;17.11;42.98;100977.75;4972726;28;1234;-48
2023/12/08 04:21:24;;;;;;;;;;;;;;;16.55;43.90;100971.00;4968672;28;1153;-49
2023/12/08 04:23:49;;;;;;;;;;;;;;;15.98;44.85;100980.06;4958792;28;1096;-50
2023/12/08 04:26:16;;;;;;;;;;;;;;;15.78;45.77;100973.41;4972148;28;1148;-50
2023/12/08 04:28:42;;;;;;;;;;;;;;;16.93;43.12;100964.81;4965786;28;1140;-50
2023/12/08 04:31:08;;;;;;;;;;;;;;;16.34;44.36;100972.38;4961990;28;895;-47
2023/12/08 04:33:33;;;;;;;;;;;;;;;15.83;45.03;100971.28;4957667;29;1045;-51
2023/12/08 04:35:59;;;;;;;;;;;;;;;16.48;44.30;100976.72;4971146;28;1898;-50
2023/12/08 04:38:24;;;;;;;;;;;;;;;17.09;42.52;100971.69;4971965;28;1133;-51
2023/12/08 04:40:50;;;;;;;;;;;;;;;16.30;44.48;100959.44;4967921;28;1127;-52
2023/12/08 04:43:16;;;;;;;;;;;;;;;16.19;44.69;100961.00;4977085;28;1157;-54
2023/12/08 04:45:41;;;;;;;;;;;;;;;17.27;42.29;100960.72;4968415;28;1177;-57
2023/12/08 04:48:07;;;;;;;;;;;;;;;16.50;43.97;100961.53;4971148;28;1536;-57
2023/12/08 04:50:33;;;;;;;;;;;;;;;16.00;45.01;100964.88;4963010;28;2969;-57
2023/12/08 04:52:58;;;;;;;;;;;;;;;16.11;45.15;100963.31;4960960;28;1844;-57
2023/12/08 04:55:24;;;;;;;;;;;;;;;17.22;42.14;100969.84;4963151;28;1907;-54
2023/12/08 04:57:49;;;;;;;;;;;;;;;16.40;43.77;100971.94;4959472;28;2064;-52
2023/12/08 05:00:15;;;;;;;;;;;;;;;16.20;44.13;100977.78;4967445;28;2134;-58
2023/12/08 05:02:40;;;;;;;;;;;;;;;16.46;42.74;100976.00;4961695;28;2203;-52
2023/12/08 05:05:06;;;;;;;;;;;;;;;17.79;39.18;100979.09;4967906;28;1120;-55
2023/12/08 05:07:32;;;;;;;;;;;;;;;16.60;42.48;100966.22;4961094;28;947;-61
2023/12/08 05:09:58;;;;;;;;;;;;;;;17.00;41.00;100954.56;4977081;28;1017;-54
2023/12/08 05:12:24;;;;;;;;;;;;;;;17.67;39.64;100981.69;4961203;28;1165;-57
2023/12/08 05:14:49;;;;;;;;;;;;;;;18.07;38.89;100967.22;4967403;28;1135;-56
2023/12/08 05:17:15;;;;;;;;;;;;;;;17.36;40.42;100970.66;4972896;28;1980;-53
2023/12/08 05:19:40;;;;;;;;;;;;;;;17.03;41.18;100970.31;4974337;28;909;-56
2023/12/08 05:22:06;;;;;;;;;;;;;;;16.80;42.02;100978.09;4976498;28;1041;-56
2023/12/08 05:24:32;;;;;;;;;;;;;;;16.59;42.45;100988.41;4967520;28;1207;-55
2023/12/08 05:26:57;;;;;;;;;;;;;;;16.23;43.50;100990.84;4973263;28;1060;-57
2023/12/08 05:29:23;;;;;;;;;;;;;;;17.22;41.84;100992.94;4976780;28;1089;-57
2023/12/08 05:31:48;;;;;;;;;;;;;;;16.40;43.35;100992.34;4962440;28;862;-55
2023/12/08 05:34:14;;;;;;;;;;;;;;;17.39;41.57;100991.72;4959650;28;2678;-57
2023/12/08 05:36:40;;;;;;;;;;;;;;;18.08;40.13;100994.69;4962345;28;1906;-54
2023/12/08 05:39:06;;;;;;;;;;;;;;;16.35;43.77;100987.34;4968169;28;1272;-55
2023/12/08 05:41:31;;;;;;;;;;;;;;;17.05;42.95;100983.50;4972528;28;1117;-56
2023/12/08 05:43:57;;;;;;;;;;;;;;;16.89;42.80;100981.91;4959354;28;901;-54
2023/12/08 05:46:22;;;;;;;;;;;;;;;15.83;45.26;100976.59;4957597;28;1081;-53
2023/12/08 05:48:48;;;;;;;;;;;;;;;17.54;42.30;100979.09;4957329;28;1172;-53
2023/12/08 05:51:14;;;;;;;;;;;;;;;16.25;45.03;100981.81;4970508;28;1384;-54
2023/12/08 05:53:39;;;;;;;;;;;;;;;18.11;41.23;100990.00;4966081;28;1052;-53
2023/12/08 05:56:05;;;;;;;;;;;;;;;17.81;41.07;100986.00;4976113;28;1905;-54
2023/12/08 05:58:31;;;;;;;;;;;;;;;16.61;43.31;100992.69;4979848;28;1135;-55
2023/12/08 06:00:56;;;;;;;;;;;;;;;18.43;40.22;100998.31;4980082;28;1052;-55
2023/12/08 06:03:22;;;;;;;;;;;;;;;17.08;42.73;100997.38;4977484;28;2539;-54
2023/12/08 06:05:48;;;;;;;;;;;;;;;16.56;44.28;100999.25;4975520;28;1236;-49
2023/12/08 06:08:13;;;;;;;;;;;;;;;17.67;41.52;100991.50;4975576;28;922;-55
2023/12/08 06:10:39;;;;;;;;;;;;;;;17.51;42.50;101003.28;4967850;28;1233;-56
2023/12/08 06:13:05;;;;;;;;;;;;;;;18.94;39.42;100991.69;4954258;28;1057;-54
2023/12/08 06:15:30;;;;;;;;;;;;;;;15.02;47.53;100987.03;4980069;28;1906;-51
2023/12/08 06:17:56;;;;;;;;;;;;;;;17.57;42.66;100994.84;4973229;28;1041;-47
2023/12/08 06:20:21;;;;;;;;;;;;;;;18.38;40.44;100997.81;4970632;28;879;-49
2023/12/08 06:22:47;;;;;;;;;;;;;;;16.71;43.62;100986.72;4962729;28;1144;-51
2023/12/08 06:25:12;;;;;;;;;;;;;;;17.22;43.47;100990.25;4973362;28;1053;-48
2023/12/08 06:27:38;;;;;;;;;;;;;;;17.12;42.81;101004.22;4972309;28;982;-49
2023/12/08 06:30:05;;;;;;;;;;;;;;;17.72;42.33;101013.28;4971568;28;1155;-48
2023/12/08 06:32:30;;;;;;;;;;;;;;;18.99;39.37;101007.31;4967537;28;2215;-47
2023/12/08 06:34:56;;;;;;;;;;;;;;;14.75;48.99;101015.09;4972887;28;1065;-48
2023/12/08 06:37:21;;;;;;;;;;;;;;;17.93;41.91;101013.53;4967683;28;1907;-51
2023/12/08 06:39:47;;;;;;;;;;;;;;;17.47;42.32;100999.13;4966165;28;1158;-48
2023/12/08 06:42:12;;;;;;;;;;;;;;;16.71;44.35;101000.00;4979534;28;1076;-50
2023/12/08 06:44:38;;;;;;;;;;;;;;;18.70;40.35;101007.81;4959893;28;1015;-50
2023/12/08 06:47:04;;;;;;;;;;;;;;;17.16;43.00;101017.31;4967102;28;1025;-46
2023/12/08 06:49:29;;;;;;;;;;;;;;;17.72;42.50;101002.66;4978566;28;1099;-46
2023/12/08 06:51:55;;;;;;;;;;;;;;;18.05;41.26;101019.72;4960102;28;1239;-48
2023/12/08 06:54:20;;;;;;;;;;;;;;;16.92;43.33;101008.25;4960178;28;1521;-47
2023/12/08 06:56:46;;;;;;;;;;;;;;;18.13;41.47;101016.53;4979538;28;1910;-44
2023/12/08 06:59:12;;;;;;;;;;;;;;;17.17;43.04;101013.66;4976607;28;1120;-47
2023/12/08 07:01:37;;;;;;;;;;;;;;;18.16;41.46;101016.28;4963416;28;1365;-47
2023/12/08 07:04:06;;;;;;;;;;;;;;;18.06;40.88;101010.78;4972239;28;2553;-49
2023/12/08 07:06:32;;;;;;;;;;;;;;;16.03;46.95;101016.91;4976293;28;1111;-48
2023/12/08 07:08:58;;;;;;;;;;;;;;;18.59;40.79;101021.94;4978959;28;1529;-46
2023/12/08 07:11:24;;;;;;;;;;;;;;;17.38;42.73;101014.78;4978591;28;1056;-46
2023/12/08 07:13:49;;;;;;;;;;;;;;;17.21;43.58;101020.47;4968970;28;1032;-48
2023/12/08 07:16:15;;;;;;;;;;;;;;;18.67;40.16;101013.34;4962855;28;1919;-48
2023/12/08 07:18:41;;;;;;;;;;;;;;;17.23;43.20;101010.59;4977422;28;1068;-48
2023/12/08 07:21:06;;;;;;;;;;;;;;;17.63;42.75;101018.31;4972314;28;1208;-46
2023/12/08 07:23:33;;;;;;;;;;;;;;;17.49;42.53;101021.16;4960027;28;1319;-49
2023/12/08 07:25:59;;;;;;;;;;;;;;;17.35;43.32;101017.69;4959762;28;1161;-49
2023/12/08 07:28:24;;;;;;;;;;;;;;;19.14;39.57;101015.09;4959814;28;1345;-48
2023/12/08 07:30:50;;;;;;;;;;;;;;;15.02;49.05;101019.69;4961117;28;1223;-47
2023/12/08 07:33:15;;;;;;;;;;;;;;;18.29;41.41;101013.53;4966239;28;2512;-49
2023/12/08 07:35:41;;;;;;;;;;;;;;;16.82;43.85;101007.19;4959361;28;1910;-49
2023/12/08 07:38:06;;;;;;;;;;;;;;;16.51;45.96;101018.16;4960255;28;1172;-45
2023/12/08 07:40:33;;;;;;;;;;;;;;;18.70;40.34;101008.63;4968201;28;1037;-50
2023/12/08 07:42:59;;;;;;;;;;;;;;;17.14;43.33;101017.41;4963162;28;1185;-47
2023/12/08 07:45:25;;;;;;;;;;;;;;;17.27;43.87;101019.22;4958717;29;1062;-48
2023/12/08 07:47:50;;;;;;;;;;;;;;;18.00;41.64;101013.88;4958802;29;1321;-49
2023/12/08 07:50:16;;;;;;;;;;;;;;;16.91;43.76;101024.31;4971982;28;1200;-49
2023/12/08 07:52:44;;;;;;;;;;;;;;;18.26;41.64;101039.56;4965282;28;1028;-47
2023/12/08 07:55:10;;;;;;;;;;;;;;;17.28;43.13;101051.00;4974782;28;1040;-46
2023/12/08 07:57:35;;;;;;;;;;;;;;;17.09;43.91;101035.50;4966051;28;1942;-46
2023/12/08 08:00:01;;;;;;;;;;;;;;;18.32;40.95;101023.97;4965714;28;1121;-45
2023/12/08 08:02:26;;;;;;;;;;;;;;;16.91;43.73;101026.97;4967741;28;2242;-49
2023/12/08 08:04:52;;;;;;;;;;;;;;;17.82;42.58;101022.28;4965482;28;1038;-47
2023/12/08 08:07:18;;;;;;;;;;;;;;;17.31;43.04;101013.56;4974676;28;1156;-47
2023/12/08 08:09:43;;;;;;;;;;;;;;;16.66;43.73;101018.91;4978299;28;1170;-47
2023/12/08 08:12:09;;;;;;;;;;;;;;;17.91;42.30;101030.56;4958671;28;1081;-45
2023/12/08 08:14:35;;;;;;;;;;;;;;;16.91;43.73;101026.97;4966740;28;1017;-48
2023/12/08 08:17:01;;;;;;;;;;;;;;;17.32;43.58;101033.00;4963502;28;1966;-46
2023/12/08 08:19:27;;;;;;;;;;;;;;;17.92;41.88;101032.25;4961797;28;1125;-47
2023/12/08 08:21:53;;;;;;;;;;;;;;;16.74;43.94;101026.34;4963646;28;1025;-48
2023/12/08 08:24:18;;;;;;;;;;;;;;;17.13;44.17;101037.00;4967256;28;1180;-48
2023/12/08 08:26:44;;;;;;;;;;;;;;;17.08;43.55;101020.47;4959944;28;1161;-48
2023/12/08 08:29:09;;;;;;;;;;;;;;;18.45;41.21;101029.19;4969870;28;1104;-48
2023/12/08 08:31:35;;;;;;;;;;;;;;;17.48;42.31;101033.59;4960188;28;1117;-45
2023/12/08 08:34:01;;;;;;;;;;;;;;;16.33;46.46;101039.69;4969334;28;2567;-47
2023/12/08 08:36:26;;;;;;;;;;;;;;;18.72;40.66;101048.50;4977025;28;1902;-48
2023/12/08 08:38:52;;;;;;;;;;;;;;;15.96;45.56;101037.66;4965275;28;1203;-52
2023/12/08 08:41:18;;;;;;;;;;;;;;;17.24;43.95;101042.38;4964600;28;1001;-42
2023/12/08 08:43:43;;;;;;;;;;;;;;;19.05;39.77;101030.00;4964726;28;1084;-47
2023/12/08 08:46:09;;;;;;;;;;;;;;;14.57;49.39;101025.88;4963766;28;1365;-50
2023/12/08 08:48:34;;;;;;;;;;;;;;;17.95;42.48;101024.06;4957970;28;1038;-48
2023/12/08 08:51:00;;;;;;;;;;;;;;;17.90;42.06;101027.03;4961418;28;1129;-49
2023/12/08 08:53:27;;;;;;;;;;;;;;;16.77;44.27;101020.81;4957805;28;1064;-48
2023/12/08 08:55:53;;;;;;;;;;;;;;;17.86;42.67;101017.59;4969232;28;1911;-50
2023/12/08 08:58:18;;;;;;;;;;;;;;;17.11;43.84;101017.63;4959867;28;1242;-49
2023/12/08 09:00:45;;;;;;;;;;;;;;;18.69;40.75;101014.94;4965247;28;1076;-48
2023/12/08 09:03:10;;;;;;;;;;;;;;;16.05;45.75;101014.16;4960266;28;2439;-47
2023/12/08 09:05:40;;;;;;;;;;;;;;;17.27;44.16;101017.38;4953885;28;1054;-45
2023/12/08 09:08:06;;;;;;;;;;;;;;;19.13;39.98;101006.25;4967464;28;1143;-50
2023/12/08 09:10:32;;;;;;;;;;;;;;;14.83;49.04;101005.88;4957666;28;1327;-51
2023/12/08 09:12:57;;;;;;;;;;;;;;;18.16;42.23;101012.78;4964542;28;1077;-49
2023/12/08 09:15:23;;;;;;;;;;;;;;;18.02;41.33;101017.28;4957576;28;1902;-47
2023/12/08 09:17:48;;;;;;;;;;;;;;;15.86;47.93;101012.69;4974158;28;1197;-50
2023/12/08 09:20:14;;;;;;;;;;;;;;;18.63;40.99;101019.91;4964553;28;1041;-50
2023/12/08 09:22:41;;;;;;;;;;;;;;;15.87;46.22;101011.72;4963597;28;1032;-52
2023/12/08 09:25:07;;;;;;;;;;;;;;;17.10;44.64;101011.47;4958120;28;1299;-49
2023/12/08 09:27:32;;;;;;;;;;;;;;;18.55;40.86;101002.69;4965235;28;1064;-49
2023/12/08 09:29:58;;;;;;;;;;;;;;;16.94;44.25;101006.34;4958247;28;1434;-49
2023/12/08 09:32:23;;;;;;;;;;;;;;;18.16;42.01;100999.47;4962566;28;1837;-49
2023/12/08 09:34:49;;;;;;;;;;;;;;;16.26;44.74;100995.94;4961871;28;1350;-48
2023/12/08 09:37:15;;;;;;;;;;;;;;;16.93;44.84;100990.53;4968245;28;1914;-51
2023/12/08 09:39:40;;;;;;;;;;;;;;;18.90;40.11;100984.88;4967255;28;1378;-49
2023/12/08 09:42:07;;;;;;;;;;;;;;;17.16;43.34;100988.91;4961449;28;1049;-45
2023/12/08 09:44:32;;;;;;;;;;;;;;;16.60;44.50;100985.66;4955658;28;1133;-49
2023/12/08 09:47:00;;;;;;;;;;;;;;;17.65;42.59;100985.47;4961771;28;1109;-47
2023/12/08 09:49:29;;;;;;;;;;;;;;;16.69;44.28;100985.97;4947882;28;1069;-52
2023/12/08 09:51:55;;;;;;;;;;;;;;;18.68;40.65;100991.94;4961615;28;1048;-51
2023/12/08 09:54:20;;;;;;;;;;;;;;;15.10;47.47;100992.69;4974395;28;1080;-47
2023/12/08 09:56:55;;;;;;;;;;;;;;;17.60;43.32;100997.28;4960898;28;1899;-49
2023/12/08 09:59:23;;;;;;;;;;;;;;;18.17;41.22;100991.34;4964316;28;1041;-49
2023/12/08 10:01:48;;;;;;;;;;;;;;;16.92;43.83;100981.69;4971313;28;1203;-50
2023/12/08 10:04:14;;;;;;;;;;;;;;;17.73;42.79;100983.91;4973813;28;2772;-50
2023/12/08 10:06:39;;;;;;;;;;;;;;;17.16;43.46;100985.41;4971829;28;1249;-51
2023/12/08 10:09:06;;;;;;;;;;;;;;;17.21;43.84;100968.16;4968883;28;1076;-49
2023/12/08 10:11:32;;;;;;;;;;;;;;;18.21;40.89;100984.00;4974054;28;1136;-49
2023/12/08 10:13:57;;;;;;;;;;;;;;;15.55;48.04;100970.44;4960885;28;1187;-52
2023/12/08 10:16:23;;;;;;;;;;;;;;;18.45;41.16;100983.06;4959520;29;1897;-47
2023/12/08 10:18:49;;;;;;;;;;;;;;;17.50;42.66;100970.50;4974136;28;1085;-49
2023/12/08 10:21:18;;;;;;;;;;;;;;;17.36;43.51;100974.19;4980072;28;1146;-47
2023/12/08 10:23:43;;;;;;;;;;;;;;;18.16;41.01;100965.72;4965578;28;1145;-52
2023/12/08 10:26:09;;;;;;;;;;;;;;;15.60;47.78;100968.34;4980040;28;1048;-46
2023/12/08 10:28:35;;;;;;;;;;;;;;;18.52;41.03;100972.78;4979601;28;1093;-50
2023/12/08 10:31:00;;;;;;;;;;;;;;;16.32;44.84;100958.34;4972940;28;1024;-50
2023/12/08 10:33:26;;;;;;;;;;;;;;;16.94;44.86;100960.31;4973000;28;1986;-52
2023/12/08 10:35:51;;;;;;;;;;;;;;;18.79;40.10;100961.78;4979967;28;1902;-46
2023/12/08 10:38:18;;;;;;;;;;;;;;;17.03;43.32;100962.34;4967088;28;1160;-50
2023/12/08 10:40:47;;;;;;;;;;;;;;;16.67;44.35;100966.63;4971191;28;1097;-51
2023/12/08 10:43:22;;;;;;;;;;;;;;;18.25;41.06;100960.63;4972746;28;1137;-50
2023/12/08 10:45:55;;;;;;;;;;;;;;;16.84;43.55;100962.78;4964128;28;969;-50
2023/12/08 10:48:21;;;;;;;;;;;;;;;18.69;40.45;100966.97;4977830;28;1145;-48
2023/12/08 10:50:47;;;;;;;;;;;;;;;15.11;47.47;100961.75;4979447;28;1096;-49
2023/12/08 10:53:14;;;;;;;;;;;;;;;17.74;42.87;100966.13;4961292;28;1032;-47
2023/12/08 10:55:39;;;;;;;;;;;;;;;18.26;40.76;100965.00;4960420;28;1879;-51
2023/12/08 10:58:05;;;;;;;;;;;;;;;15.77;47.58;100956.63;4962237;28;1108;-50
2023/12/08 11:00:32;;;;;;;;;;;;;;;18.58;40.77;100953.66;4971268;28;1061;-48
2023/12/08 11:02:57;;;;;;;;;;;;;;;17.72;41.96;100960.06;4971229;28;2067;-49
2023/12/08 11:05:28;;;;;;;;;;;;;;;16.79;43.85;100955.16;4978274;28;1061;-48
2023/12/08 11:07:53;;;;;;;;;;;;;;;18.13;41.36;100955.28;4972853;28;1454;-50
2023/12/08 11:10:20;;;;;;;;;;;;;;;16.98;43.39;100936.06;4963235;28;892;-50
2023/12/08 11:12:49;;;;;;;;;;;;;;;18.72;40.40;100940.09;4966685;28;1212;-46
2023/12/08 11:15:15;;;;;;;;;;;;;;;15.58;46.37;100946.38;4953548;28;1002;-48
2023/12/08 11:17:57;;;;;;;;;;;;;;;17.63;43.04;100948.31;4978695;28;1985;-50
2023/12/08 11:20:22;;;;;;;;;;;;;;;18.53;40.13;100943.38;4964869;28;1128;-48
2023/12/08 11:22:48;;;;;;;;;;;;;;;15.71;47.23;100934.97;4959468;28;1014;-50
2023/12/08 11:25:16;;;;;;;;;;;;;;;18.56;40.60;100929.81;4973269;28;1038;-51
2023/12/08 11:27:49;;;;;;;;;;;;;;;17.75;41.83;100925.25;4970378;28;1118;-54
2023/12/08 11:30:35;;;;;;;;;;;;;;;16.85;43.54;100919.34;4962031;28;1216;-45
2023/12/08 11:33:03;;;;;;;;;;;;;;;17.88;42.14;100922.53;4953777;28;1976;-48
2023/12/08 11:35:29;;;;;;;;;;;;;;;16.74;43.70;100920.94;4962293;28;1897;-47
2023/12/08 11:37:55;;;;;;;;;;;;;;;18.36;41.05;100910.06;4965089;28;1097;-50
2023/12/08 11:40:21;;;;;;;;;;;;;;;16.51;44.24;100920.75;4968551;28;1064;-49
2023/12/08 11:42:47;;;;;;;;;;;;;;;16.94;44.28;100912.50;4963319;28;1125;-51
2023/12/08 11:45:12;;;;;;;;;;;;;;;18.91;39.71;100897.78;4963168;28;1212;-50
2023/12/08 11:47:38;;;;;;;;;;;;;;;14.92;48.22;100900.22;4961664;28;976;-52
2023/12/08 11:50:05;;;;;;;;;;;;;;;18.03;41.78;100898.38;4979112;28;1056;-52
2023/12/08 11:52:32;;;;;;;;;;;;;;;17.86;41.26;100906.69;4964259;28;1128;-46
2023/12/08 11:54:58;;;;;;;;;;;;;;;16.11;46.54;100918.22;4969677;28;1148;-49
2023/12/08 11:57:24;;;;;;;;;;;;;;;18.73;40.29;100908.97;4964145;28;1991;-52
2023/12/08 11:59:50;;;;;;;;;;;;;;;17.35;42.43;100919.28;4969244;28;1232;-52
2023/12/08 12:02:16;;;;;;;;;;;;;;;16.60;43.82;100916.59;4958790;28;1867;-48
2023/12/08 12:04:42;;;;;;;;;;;;;;;16.40;43.82;100923.28;4972033;28;1125;-50
2023/12/08 12:07:10;;;;;;;;;;;;;;;17.83;42.08;100919.38;4958785;28;1033;-56
2023/12/08 12:09:36;;;;;;;;;;;;;;;16.66;43.94;100923.28;4964473;28;1041;-49
2023/12/08 12:12:05;;;;;;;;;;;;;;;17.28;43.30;100933.16;4970794;28;1172;-56
2023/12/08 12:14:31;;;;;;;;;;;;;;;17.44;42.33;100938.19;4973153;28;1065;-53
2023/12/08 12:16:57;;;;;;;;;;;;;;;16.48;44.04;100934.22;4970104;28;1975;-55
2023/12/08 12:19:23;;;;;;;;;;;;;;;18.20;41.10;100935.19;4958863;28;1310;-54
2023/12/08 12:21:48;;;;;;;;;;;;;;;16.86;43.22;100937.81;4963365;28;1092;-50
2023/12/08 12:24:14;;;;;;;;;;;;;;;18.25;41.01;100934.00;4958347;28;1053;-52
2023/12/08 12:26:40;;;;;;;;;;;;;;;17.16;42.50;100938.41;4958547;28;1114;-49
2023/12/08 12:29:05;;;;;;;;;;;;;;;16.27;45.68;100933.91;4958427;29;1291;-55
2023/12/08 12:31:31;;;;;;;;;;;;;;;18.64;40.02;100946.97;4958144;29;1383;-52
2023/12/08 12:33:57;;;;;;;;;;;;;;;17.20;42.86;100944.34;4960020;28;2497;-53
2023/12/08 12:36:22;;;;;;;;;;;;;;;16.55;44.09;100949.75;4960701;28;1906;-56
2023/12/08 12:38:48;;;;;;;;;;;;;;;17.76;41.65;100950.91;4958430;28;1241;-54
2023/12/08 12:41:23;;;;;;;;;;;;;;;16.72;43.44;100945.91;4958651;28;1125;-54